Billings (BIL/KBIL)

Map

Destinations

Information

Location
Billings, MT
Local Time
16:38 / 4:38 pm
GMT Time
22:38 / 10:38 pm
Gates
B1
No FAA reported delays
METAR KBIL 242153Z 06007KT 10SM FEW120 SCT220 34/04 A2988 RMK AO2 SLP073 T03390044
TAF KBIL 241739Z 2418/2518 06010KT P6SM FEW150 FM250000 04010KT P6SM VCTS FEW100CB BKN200 FM250900 03010KT P6SM SCT150